Latest Weather Observations for Bunbury

IDW60801

Issued at 10:03 pm WST Monday 30 May 2016 (issued every 30 minutes, with the page automatically refreshed every 10 minutes)

About weather observations | Map of weather stations | Latest weather observations for WA | Other Formats
Station Details ID: 009965 Name: BUNBURY Lat: -33.36 Lon: 115.64 Height: 5.2 m
Data from the previous 72 hours. | See also: Recent months at Bunbury
Date/Time
WST
Temp
°C
App
Temp
°C
Dew
Point
Rel
Hum
%
Delta-T
°C
Wind Press
QNH
hPa
Press
MSL
hPa
Rain
since 9 am
mm
Dir
 
Spd
km/h
Gust
km/h
Spd
kts
Gust
kts
30/10:00pm 7.4 6.5 5.9 90 0.7 CALM 0 0 0 0 1020.0 1019.9 0.0
30/09:30pm 8.3 7.5 6.6 89 0.8 CALM 0 0 0 0 1019.8 1019.7 0.0
30/09:00pm 8.0 5.8 6.1 88 0.9 E 7 7 4 4 1019.8 1019.7 0.0
30/08:30pm 8.2 6.7 7.0 92 0.6 E 4 4 2 2 1019.9 1019.8 0.0
30/08:00pm 8.1 7.3 6.7 91 0.6 CALM 0 2 0 1 1020.0 1019.9 0.0
30/07:30pm 9.1 8.1 7.5 90 0.8 ENE 2 4 1 2 1020.0 1019.9 0.0
30/07:00pm 9.3 8.7 7.3 87 0.9 CALM 0 0 0 0 1020.1 1020.0 0.0
30/06:30pm 10.3 9.7 7.4 82 1.4 CALM 0 0 0 0 1019.7 1019.6 0.0
30/06:00pm 11.4 10.4 7.3 76 2.0 SSE 2 4 1 2 1019.4 1019.3 0.0
30/05:30pm 13.0 11.7 7.5 69 2.7 SE 4 6 2 3 1019.1 1019.0 0.0
30/05:00pm 14.9 13.1 7.2 60 3.8 ESE 6 7 3 4 1018.9 1018.8 0.0
30/04:30pm 16.1 14.8 7.6 57 4.2 ESE 4 9 2 5 1018.6 1018.5 0.0
30/04:00pm 16.7 15.3 7.4 54 4.6 E 4 6 2 3 1018.6 1018.5 0.0
30/03:30pm 17.0 15.9 7.1 52 4.9 NNE 2 7 1 4 1018.5 1018.4 0.0
30/03:00pm 16.9 15.3 8.1 56 4.5 NNW 6 9 3 5 1018.4 1018.3 0.0
30/02:30pm 16.3 14.0 7.5 56 4.4 NW 9 15 5 8 1018.5 1018.4 0.0
30/02:00pm 16.4 14.4 7.3 55 4.5 NNW 7 13 4 7 1018.5 1018.4 0.0
30/01:30pm 16.4 14.4 7.3 55 4.5 N 7 15 4 8 1018.6 1018.5 0.0
30/01:00pm 16.6 14.5 8.1 57 4.3 NNW 9 13 5 7 1018.8 1018.7 0.0
30/12:30pm 16.2 13.5 7.4 56 4.4 NNW 11 15 6 8 1019.1 1019.0 0.0
30/12:00pm 16.1 13.8 7.3 56 4.4 N 9 17 5 9 1019.3 1019.2 0.0
30/11:30am 16.1 13.5 7.6 57 4.2 NNE 11 17 6 9 1019.9 1019.8 0.0
30/11:00am 15.7 13.2 8.4 62 3.7 NE 11 17 6 9 1020.1 1020.0 0.0
30/10:30am 14.8 11.4 7.6 62 3.6 ENE 15 22 8 12 1020.3 1020.2 0.0
30/10:00am 14.2 11.2 7.9 66 3.1 NE 13 19 7 10 1020.6 1020.5 0.0
30/09:30am 13.1 10.1 7.8 70 2.6 ENE 13 19 7 10 1020.3 1020.2 0.0
30/09:00am 12.2 9.7 8.1 76 2.0 ENE 11 17 6 9 1020.4 1020.3 0.0
30/08:30am 10.9 8.4 8.1 83 1.4 ENE 11 17 6 9 1020.2 1020.1 0.0
30/08:00am 8.4 6.0 7.0 91 0.6 E 9 13 5 7 1020.2 1020.1 0.0
30/07:30am 6.6 4.8 5.4 92 0.5 ENE 4 6 2 3 1020.0 1019.9 0.0
30/07:00am 6.3 4.4 4.9 91 0.6 E 4 6 2 3 1019.8 1019.7 0.0
30/06:30am 6.6 4.4 5.2 91 0.6 ESE 6 7 3 4 1019.3 1019.2 0.0
30/06:00am 7.0 4.7 5.5 90 0.7 ESE 7 7 4 4 1019.5 1019.4 0.0
30/05:30am 7.3 5.2 5.6 89 0.8 ESE 6 7 3 4 1019.3 1019.2 0.0
30/05:00am 7.8 5.7 5.8 87 0.9 ESE 6 9 3 5 1019.2 1019.1 0.0
30/04:30am 8.6 6.6 6.2 85 1.1 ESE 6 7 3 4 1019.1 1019.0 0.0
30/04:00am 9.5 7.1 6.8 83 1.3 E 9 15 5 8 1019.0 1018.9 0.0
30/03:30am 9.7 7.4 7.5 86 1.0 E 9 13 5 7 1019.2 1019.1 0.0
30/03:00am 10.4 9.1 7.6 83 1.3 ESE 4 6 2 3 1019.4 1019.3 0.0
30/02:30am 10.9 9.3 8.0 82 1.4 E 6 9 3 5 1019.6 1019.5 0.0
30/02:00am 11.2 9.0 7.9 80 1.6 ESE 9 13 5 7 1019.6 1019.5 0.0
30/01:30am 11.7 9.5 7.8 77 1.9 ESE 9 15 5 8 1019.7 1019.6 0.0
30/01:00am 11.5 9.3 7.8 78 1.8 ESE 9 13 5 7 1020.0 1019.9 0.0
30/12:30am 11.4 9.5 7.5 77 1.9 ESE 7 9 4 5 1020.1 1020.0 0.0
30/12:00am 11.3 9.6 7.6 78 1.8 ESE 6 9 3 5 1020.4 1020.3 0.0
 
Date/Time
WST
Temp
°C
App
Temp
°C
Dew
Point
Rel
Hum
%
Delta-T
°C
Wind Press
QNH
hPa
Press
MSL
hPa
Rain
since 9 am
mm
Dir
 
Spd
km/h
Gust
km/h
Spd
kts
Gust
kts
29/11:30pm 11.3 9.4 7.6 78 1.8 ESE 7 9 4 5 1020.4 1020.3 0.0
29/11:00pm 11.3 9.7 8.0 80 1.6 E 6 7 3 4 1020.4 1020.3 0.0
29/10:30pm 11.0 9.8 8.2 83 1.4 ESE 4 4 2 2 1020.6 1020.5 0.0
29/10:00pm 11.2 9.6 8.2 82 1.5 ESE 6 7 3 4 1020.5 1020.4 0.0
29/09:30pm 11.1 9.7 8.7 85 1.2 ESE 6 7 3 4 1020.7 1020.6 0.0
29/09:00pm 10.8 9.2 8.0 83 1.4 SE 6 6 3 3 1020.7 1020.6 0.0
29/08:30pm 10.9 9.1 8.1 83 1.4 SE 7 9 4 5 1020.5 1020.4 0.0
29/08:00pm 12.0 10.4 8.7 80 1.6 ESE 7 7 4 4 1020.3 1020.2 0.0
29/07:30pm 13.3 12.1 9.4 77 2.0 SE 6 9 3 5 1020.2 1020.1 0.0
29/07:00pm 13.5 12.1 9.4 76 2.1 SE 7 9 4 5 1020.0 1019.9 0.0
29/06:30pm 13.6 12.1 9.3 75 2.2 SE 7 9 4 5 1019.8 1019.7 0.0
29/06:00pm 13.8 12.4 9.5 75 2.2 SSE 7 11 4 6 1019.5 1019.4 0.0
29/05:30pm 14.1 12.3 9.3 73 2.4 SSE 9 13 5 7 1019.2 1019.1 0.0
29/05:00pm 14.3 12.5 9.5 73 2.5 S 9 13 5 7 1019.0 1018.9 0.0
29/04:30pm 14.8 13.3 9.2 69 2.9 SSE 7 17 4 9 1018.9 1018.8 0.0
29/04:00pm 15.2 13.7 9.1 67 3.1 SE 7 11 4 6 1018.7 1018.6 0.0
29/03:30pm 15.7 13.9 9.6 67 3.2 SSE 9 15 5 8 1018.5 1018.4 0.0
29/03:00pm 15.8 14.2 8.8 63 3.6 SE 7 11 4 6 1018.3 1018.2 0.0
29/02:30pm 16.9 15.9 8.8 59 4.2 SSE 4 11 2 6 1018.1 1018.0 0.0
29/02:00pm 16.3 14.9 9.5 64 3.5 SSE 7 11 4 6 1018.3 1018.2 0.0
29/01:30pm 16.1 13.9 9.5 65 3.4 SE 11 17 6 9 1018.4 1018.3 0.0
29/01:00pm 15.3 13.0 9.0 66 3.2 SE 11 19 6 10 1018.8 1018.7 0.0
29/12:30pm 16.1 14.6 9.3 64 3.5 ESE 7 13 4 7 1019.2 1019.1 0.0
29/12:00pm 15.2 14.3 9.1 67 3.1 SE 4 13 2 7 1019.6 1019.5 0.0
29/11:30am 14.9 13.7 9.5 70 2.8 SE 6 13 3 7 1019.9 1019.8 0.0
29/11:00am 14.9 13.6 9.9 72 2.6 ESE 7 13 4 7 1020.2 1020.1 0.0
29/10:30am 14.3 13.2 10.5 78 2.0 ESE 7 9 4 5 1020.4 1020.3 0.0
29/10:00am 12.7 11.9 11.1 90 0.8 S 6 7 3 4 1020.5 1020.4 0.0
29/09:30am 11.6 10.7 10.7 94 0.5 SSE 6 9 3 5 1020.4 1020.3 0.0
29/09:00am 10.3 9.1 9.7 96 0.3 SE 6 9 3 5 1020.3 1020.2 0.0
29/08:30am 8.2 6.9 7.6 96 0.3 E 4 6 2 3 1020.0 1019.9 0.0
29/08:00am 6.6 4.9 6.0 96 0.3 ESE 4 4 2 2 1019.8 1019.7 0.0
29/07:30am 4.6 3.3 4.0 96 0.3 CALM 0 0 0 0 1019.5 1019.4 0.0
29/07:00am 5.0 2.6 4.4 96 0.3 S 6 6 3 3 1019.3 1019.2 0.0
29/06:30am 5.1 3.9 4.5 96 0.3 CALM 0 0 0 0 1019.0 1018.9 0.0
29/06:00am 5.0 3.8 4.4 96 0.3 CALM 0 0 0 0 1018.6 1018.5 0.0
29/05:30am 5.3 4.1 4.6 95 0.3 CALM 0 0 0 0 1018.3 1018.2 0.0
29/05:00am 5.5 4.3 4.8 95 0.3 CALM 0 0 0 0 1018.1 1018.0 0.0
29/04:30am 5.7 4.6 5.0 95 0.3 CALM 0 0 0 0 1017.9 1017.8 0.0
29/04:00am 6.2 5.2 5.5 95 0.3 CALM 0 0 0 0 1017.6 1017.5 0.0
29/03:30am 5.7 4.5 4.8 94 0.4 CALM 0 0 0 0 1017.5 1017.4 0.0
29/03:00am 6.6 5.6 5.7 94 0.4 CALM 0 0 0 0 1017.3 1017.2 0.0
29/02:30am 7.2 6.4 6.3 94 0.4 CALM 0 0 0 0 1017.3 1017.2 0.0
29/02:00am 7.4 6.6 6.5 94 0.4 CALM 0 0 0 0 1017.2 1017.1 0.0
29/01:30am 7.4 6.2 6.5 94 0.4 S 2 2 1 1 1017.2 1017.1 0.0
29/01:00am 7.4 6.6 6.3 93 0.5 CALM 0 2 0 1 1017.3 1017.2 0.0
29/12:30am 8.2 6.2 7.0 92 0.6 SSW 7 9 4 5 1017.2 1017.1 0.0
29/12:00am 8.3 7.6 6.9 91 0.6 CALM 0 2 0 1 1017.1 1017.0 0.0
 
Date/Time
WST
Temp
°C
App
Temp
°C
Dew
Point
Rel
Hum
%
Delta-T
°C
Wind Press
QNH
hPa
Press
MSL
hPa
Rain
since 9 am
mm
Dir
 
Spd
km/h
Gust
km/h
Spd
kts
Gust
kts
28/11:30pm 8.9 8.3 7.4 90 0.7 CALM 0 2 0 1 1017.1 1017.0 0.0
28/11:00pm 9.5 7.8 7.6 88 0.9 SSE 6 6 3 3 1017.3 1017.2 0.0
28/10:30pm 9.8 8.1 7.7 87 1.0 S 6 7 3 4 1017.3 1017.2 0.0
28/10:00pm 10.3 8.5 8.1 86 1.1 S 7 9 4 5 1017.3 1017.2 0.0
28/09:30pm 9.7 8.4 7.5 86 1.0 SSW 4 4 2 2 1017.0 1016.9 0.0
28/09:00pm 10.6 9.4 8.0 84 1.3 S 4 6 2 3 1016.7 1016.6 0.0
28/08:30pm 9.8 8.6 8.1 89 0.8 SSW 4 7 2 4 1016.5 1016.4 0.0
28/08:00pm 10.0 9.4 7.6 85 1.1 CALM 0 0 0 0 1016.2 1016.1 0.0
28/07:30pm 11.4 10.8 7.3 76 2.0 CALM 0 2 0 1 1016.0 1015.9 0.0
28/07:00pm 12.9 11.7 8.2 73 2.3 SSW 4 6 2 3 1015.7 1015.6 0.0
28/06:30pm 14.0 12.3 8.4 69 2.8 SSW 7 13 4 7 1015.4 1015.3 0.0
28/06:00pm 14.6 12.6 8.5 67 3.1 SW 9 13 5 7 1015.2 1015.1 0.0
28/05:30pm 14.9 13.5 9.5 70 2.8 SW 7 13 4 7 1014.9 1014.8 0.0
28/05:00pm 15.7 13.0 9.1 65 3.4 SW 13 20 7 11 1014.6 1014.5 0.0
28/04:30pm 16.6 13.7 9.5 63 3.7 SW 15 24 8 13 1014.5 1014.4 0.0
28/04:00pm 17.2 14.0 10.1 63 3.8 SW 17 28 9 15 1014.2 1014.1 0.0
28/03:30pm 17.6 15.1 10.9 65 3.6 SW 15 28 8 15 1014.0 1013.9 0.0
28/03:00pm 17.9 14.8 10.3 61 4.1 WSW 17 24 9 13 1013.4 1013.4 0.0
28/02:30pm 18.2 15.4 10.1 59 4.3 WSW 15 24 8 13 1013.3 1013.3 0.0
28/02:00pm 18.1 14.6 10.2 60 4.2 SW 19 28 10 15 1013.0 1013.0 0.0
28/01:30pm 18.3 14.9 10.7 61 4.1 SW 19 28 10 15 1012.9 1012.9 0.0
28/01:00pm 17.9 14.3 10.0 60 4.2 WSW 19 24 10 13 1012.9 1012.9 0.0
28/12:30pm 18.0 15.3 11.6 66 3.5 SW 17 24 9 13 1012.9 1012.9 0.0
28/12:00pm 18.0 14.6 11.3 65 3.6 SW 20 33 11 18 1013.3 1013.3 0.0
28/11:30am 18.2 14.9 11.7 66 3.6 WSW 20 28 11 15 1013.7 1013.7 0.0
28/11:00am 17.7 15.8 11.7 68 3.3 SW 13 20 7 11 1013.8 1013.8 0.0
28/10:30am 17.2 15.3 11.7 70 3.0 SW 13 20 7 11 1014.0 1013.9 0.0
28/10:00am 16.8 13.4 11.3 70 3.0 SW 20 30 11 16 1014.2 1014.1 0.0
28/09:30am 16.9 14.6 11.8 72 2.8 W 15 20 8 11 1014.0 1013.9 0.0
28/09:00am 17.2 15.1 11.2 68 3.2 SW 13 22 7 12 1013.6 1013.6 9.2
28/08:30am 16.5 14.7 10.8 69 3.0 WSW 11 19 6 10 1013.4 1013.4 9.2
28/08:00am 15.7 14.1 11.5 76 2.3 WSW 11 22 6 12 1013.4 1013.4 9.2
28/07:30am 15.7 13.5 10.7 72 2.7 WSW 13 28 7 15 1012.9 1012.9 9.2
28/07:00am 15.3 11.5 11.3 77 2.1 SW 22 37 12 20 1012.7 1012.7 9.2
28/06:30am 15.5 13.0 11.1 75 2.3 WSW 15 30 8 16 1012.3 1012.3 9.2
28/06:00am 15.1 13.0 11.3 78 2.0 WSW 13 20 7 11 1012.1 1012.1 8.8
28/05:30am 16.9 13.5 10.5 66 3.4 WSW 19 32 10 17 1011.9 1011.9 8.8
28/05:00am 16.6 14.0 10.7 68 3.1 WSW 15 22 8 12 1011.9 1011.9 8.8
28/04:30am 16.6 13.2 10.5 67 3.2 WSW 19 33 10 18 1011.7 1011.7 8.8
28/04:00am 16.9 12.8 10.1 64 3.6 WSW 22 32 12 17 1011.6 1011.6 8.8
28/03:30am 16.6 14.1 12.2 75 2.4 WSW 17 28 9 15 1011.6 1011.6 8.8
28/03:00am 16.7 13.5 12.0 74 2.6 W 20 33 11 18 1011.8 1011.8 8.8
28/02:30am 15.9 12.5 11.1 73 2.6 WNW 20 41 11 22 1011.7 1011.7 8.8
28/02:00am 15.4 12.4 13.6 89 1.0 WNW 22 35 12 19 1011.9 1011.9 8.6
28/01:30am 15.4 11.3 13.8 90 0.9 WNW 28 46 15 25 1011.8 1011.8 6.8
28/01:05am 16.0 12.1 14.4 90 0.9 NNW 28 48 15 26 1012.0 1012.0 5.2
28/01:00am 16.1 12.9 14.3 89 1.0 NNW 24 37 13 20 1011.7 1011.7 4.2
28/12:30am 15.7 11.3 14.1 90 0.9 NNW 30 44 16 24 1012.0 1012.0 3.4
28/12:00am 17.9 13.0 12.6 71 3.0 N 30 41 16 22 1011.9 1011.9 0.0
 
Date/Time
WST
Temp
°C
App
Temp
°C
Dew
Point
Rel
Hum
%
Delta-T
°C
Wind Press
QNH
hPa
Press
MSL
hPa
Rain
since 9 am
mm
Dir
 
Spd
km/h
Gust
km/h
Spd
kts
Gust
kts
27/11:30pm 17.7 13.1 12.2 70 3.0 N 28 41 15 22 1012.5 1012.5 0.0
27/11:00pm 17.4 12.9 12.5 73 2.7 N 28 41 15 22 1013.2 1013.2 0.0
27/10:30pm 17.4 13.5 12.1 71 2.9 N 24 39 13 21 1013.6 1013.6 0.0

Other Formats:

Comma delimited format used in spreadsheet applications
http://www.bom.gov.au/fwo/IDW60801/IDW60801.94604.axf

JavaScript Object Notation format (JSON) in row-major order
http://www.bom.gov.au/fwo/IDW60801/IDW60801.94604.json